sensor_id;sensor_type;location;lat;lon;timestamp;temperature;humidity
38746;DHT22;24488;0.000;0.000;2023-12-14T00:01:38;24.30;43.60
38746;DHT22;24488;0.000;0.000;2023-12-14T00:04:05;24.30;43.60
38746;DHT22;24488;0.000;0.000;2023-12-14T00:06:31;24.30;43.10
38746;DHT22;24488;0.000;0.000;2023-12-14T00:08:56;24.30;43.60
38746;DHT22;24488;0.000;0.000;2023-12-14T00:11:22;24.30;43.60
38746;DHT22;24488;0.000;0.000;2023-12-14T00:13:48;24.30;43.60
38746;DHT22;24488;0.000;0.000;2023-12-14T00:16:14;24.30;43.10
38746;DHT22;24488;0.000;0.000;2023-12-14T00:18:39;24.40;43.60
38746;DHT22;24488;0.000;0.000;2023-12-14T00:21:05;24.40;43.50
38746;DHT22;24488;0.000;0.000;2023-12-14T00:23:31;24.40;43.50
38746;DHT22;24488;0.000;0.000;2023-12-14T00:25:56;24.40;43.00
38746;DHT22;24488;0.000;0.000;2023-12-14T00:28:22;24.40;43.50
38746;DHT22;24488;0.000;0.000;2023-12-14T00:30:48;24.40;43.60
38746;DHT22;24488;0.000;0.000;2023-12-14T00:33:13;24.40;43.60
38746;DHT22;24488;0.000;0.000;2023-12-14T00:35:39;24.40;43.10
38746;DHT22;24488;0.000;0.000;2023-12-14T00:38:04;24.40;43.60
38746;DHT22;24488;0.000;0.000;2023-12-14T00:40:30;24.40;43.60
38746;DHT22;24488;0.000;0.000;2023-12-14T00:42:55;24.40;43.60
38746;DHT22;24488;0.000;0.000;2023-12-14T00:45:21;24.40;43.20
38746;DHT22;24488;0.000;0.000;2023-12-14T00:47:46;24.40;43.70
38746;DHT22;24488;0.000;0.000;2023-12-14T00:50:12;24.40;43.60
38746;DHT22;24488;0.000;0.000;2023-12-14T00:52:38;24.30;43.60
38746;DHT22;24488;0.000;0.000;2023-12-14T00:55:03;24.20;43.30
38746;DHT22;24488;0.000;0.000;2023-12-14T00:57:29;24.30;43.80
38746;DHT22;24488;0.000;0.000;2023-12-14T00:59:55;24.20;43.80
38746;DHT22;24488;0.000;0.000;2023-12-14T01:02:20;24.20;43.80
38746;DHT22;24488;0.000;0.000;2023-12-14T01:04:47;24.20;43.30
38746;DHT22;24488;0.000;0.000;2023-12-14T01:07:12;24.10;43.70
38746;DHT22;24488;0.000;0.000;2023-12-14T01:09:38;24.20;43.70
38746;DHT22;24488;0.000;0.000;2023-12-14T01:12:04;24.20;43.60
38746;DHT22;24488;0.000;0.000;2023-12-14T01:14:29;24.20;43.60
38746;DHT22;24488;0.000;0.000;2023-12-14T01:16:55;24.20;43.10
38746;DHT22;24488;0.000;0.000;2023-12-14T01:19:20;24.10;43.60
38746;DHT22;24488;0.000;0.000;2023-12-14T01:21:46;24.10;43.50
38746;DHT22;24488;0.000;0.000;2023-12-14T01:24:12;24.20;43.50
38746;DHT22;24488;0.000;0.000;2023-12-14T01:26:37;24.10;43.00
38746;DHT22;24488;0.000;0.000;2023-12-14T01:29:03;24.10;43.50
38746;DHT22;24488;0.000;0.000;2023-12-14T01:31:28;24.10;43.50
38746;DHT22;24488;0.000;0.000;2023-12-14T01:33:54;24.10;43.50
38746;DHT22;24488;0.000;0.000;2023-12-14T01:36:23;24.10;43.00
38746;DHT22;24488;0.000;0.000;2023-12-14T01:38:50;24.10;43.50
38746;DHT22;24488;0.000;0.000;2023-12-14T01:41:16;24.10;43.50
38746;DHT22;24488;0.000;0.000;2023-12-14T01:43:42;24.00;43.50
38746;DHT22;24488;0.000;0.000;2023-12-14T01:46:08;24.00;43.10
38746;DHT22;24488;0.000;0.000;2023-12-14T01:48:34;24.00;43.60
38746;DHT22;24488;0.000;0.000;2023-12-14T01:51:00;23.90;44.10
38746;DHT22;24488;0.000;0.000;2023-12-14T01:53:25;23.90;43.60
38746;DHT22;24488;0.000;0.000;2023-12-14T01:55:51;23.90;43.10
38746;DHT22;24488;0.000;0.000;2023-12-14T01:58:17;23.90;43.60
38746;DHT22;24488;0.000;0.000;2023-12-14T02:03:08;23.90;43.50
38746;DHT22;24488;0.000;0.000;2023-12-14T02:05:33;23.90;43.00
38746;DHT22;24488;0.000;0.000;2023-12-14T02:07:59;23.90;43.50
38746;DHT22;24488;0.000;0.000;2023-12-14T02:10:24;23.90;44.00
38746;DHT22;24488;0.000;0.000;2023-12-14T02:12:50;23.90;43.50
38746;DHT22;24488;0.000;0.000;2023-12-14T02:15:15;23.90;42.90
38746;DHT22;24488;0.000;0.000;2023-12-14T02:17:41;23.90;43.40
38746;DHT22;24488;0.000;0.000;2023-12-14T02:20:07;23.90;43.40
38746;DHT22;24488;0.000;0.000;2023-12-14T02:22:47;24.00;43.40
38746;DHT22;24488;0.000;0.000;2023-12-14T02:25:15;23.90;42.90
38746;DHT22;24488;0.000;0.000;2023-12-14T02:27:41;23.90;43.40
38746;DHT22;24488;0.000;0.000;2023-12-14T02:30:07;23.90;43.40
38746;DHT22;24488;0.000;0.000;2023-12-14T02:32:33;23.90;43.50
38746;DHT22;24488;0.000;0.000;2023-12-14T02:34:58;23.80;43.00
38746;DHT22;24488;0.000;0.000;2023-12-14T02:37:24;23.80;44.10
38746;DHT22;24488;0.000;0.000;2023-12-14T02:39:49;23.80;43.50
38746;DHT22;24488;0.000;0.000;2023-12-14T02:42:15;23.80;43.50
38746;DHT22;24488;0.000;0.000;2023-12-14T02:44:40;23.80;43.50
38746;DHT22;24488;0.000;0.000;2023-12-14T02:47:06;23.80;43.10
38746;DHT22;24488;0.000;0.000;2023-12-14T02:49:32;23.70;43.60
38746;DHT22;24488;0.000;0.000;2023-12-14T02:51:58;23.70;43.50
38746;DHT22;24488;0.000;0.000;2023-12-14T02:54:24;23.70;43.60
38746;DHT22;24488;0.000;0.000;2023-12-14T02:56:49;23.70;43.10
38746;DHT22;24488;0.000;0.000;2023-12-14T02:59:15;23.70;43.60
38746;DHT22;24488;0.000;0.000;2023-12-14T03:01:40;23.70;43.60
38746;DHT22;24488;0.000;0.000;2023-12-14T03:04:06;23.80;43.60
38746;DHT22;24488;0.000;0.000;2023-12-14T03:06:33;23.70;43.00
38746;DHT22;24488;0.000;0.000;2023-12-14T03:08:58;23.70;43.50
38746;DHT22;24488;0.000;0.000;2023-12-14T03:11:24;23.70;43.50
38746;DHT22;24488;0.000;0.000;2023-12-14T03:13:49;23.80;43.40
38746;DHT22;24488;0.000;0.000;2023-12-14T03:16:15;23.80;43.00
38746;DHT22;24488;0.000;0.000;2023-12-14T03:18:42;23.70;43.40
38746;DHT22;24488;0.000;0.000;2023-12-14T03:21:08;23.80;43.40
38746;DHT22;24488;0.000;0.000;2023-12-14T03:23:34;23.70;43.40
38746;DHT22;24488;0.000;0.000;2023-12-14T03:26:00;23.70;43.00
38746;DHT22;24488;0.000;0.000;2023-12-14T03:28:26;23.70;43.40
38746;DHT22;24488;0.000;0.000;2023-12-14T03:30:52;23.70;43.50
38746;DHT22;24488;0.000;0.000;2023-12-14T03:33:18;23.70;43.40
38746;DHT22;24488;0.000;0.000;2023-12-14T03:35:44;23.70;43.00
38746;DHT22;24488;0.000;0.000;2023-12-14T03:38:13;23.70;43.50
38746;DHT22;24488;0.000;0.000;2023-12-14T03:40:39;23.70;43.50
38746;DHT22;24488;0.000;0.000;2023-12-14T03:43:04;23.70;43.60
38746;DHT22;24488;0.000;0.000;2023-12-14T03:45:30;23.70;43.10
38746;DHT22;24488;0.000;0.000;2023-12-14T03:47:55;23.60;43.50
38746;DHT22;24488;0.000;0.000;2023-12-14T03:50:21;23.60;43.60
38746;DHT22;24488;0.000;0.000;2023-12-14T03:52:47;23.60;43.60
38746;DHT22;24488;0.000;0.000;2023-12-14T03:55:13;23.60;43.20
38746;DHT22;24488;0.000;0.000;2023-12-14T03:57:40;23.60;43.70
38746;DHT22;24488;0.000;0.000;2023-12-14T04:00:09;23.50;43.70
38746;DHT22;24488;0.000;0.000;2023-12-14T04:02:36;23.60;43.70
38746;DHT22;24488;0.000;0.000;2023-12-14T04:05:01;23.60;43.00
38746;DHT22;24488;0.000;0.000;2023-12-14T04:07:27;23.90;43.60
38746;DHT22;24488;0.000;0.000;2023-12-14T04:09:53;23.60;43.40
38746;DHT22;24488;0.000;0.000;2023-12-14T04:12:18;23.70;43.50
38746;DHT22;24488;0.000;0.000;2023-12-14T04:14:44;23.70;43.50
38746;DHT22;24488;0.000;0.000;2023-12-14T04:17:11;23.60;43.00
38746;DHT22;24488;0.000;0.000;2023-12-14T04:19:40;23.70;43.50
38746;DHT22;24488;0.000;0.000;2023-12-14T04:22:06;23.70;43.50
38746;DHT22;24488;0.000;0.000;2023-12-14T04:24:32;23.60;43.40
38746;DHT22;24488;0.000;0.000;2023-12-14T04:26:58;23.60;43.00
38746;DHT22;24488;0.000;0.000;2023-12-14T04:29:23;23.60;43.40
38746;DHT22;24488;0.000;0.000;2023-12-14T04:31:49;23.60;43.50
38746;DHT22;24488;0.000;0.000;2023-12-14T04:34:14;23.60;43.50
38746;DHT22;24488;0.000;0.000;2023-12-14T04:36:41;23.60;43.00
38746;DHT22;24488;0.000;0.000;2023-12-14T04:39:07;23.50;43.50
38746;DHT22;24488;0.000;0.000;2023-12-14T04:41:33;23.50;43.50
38746;DHT22;24488;0.000;0.000;2023-12-14T04:43:59;23.50;44.10
38746;DHT22;24488;0.000;0.000;2023-12-14T04:46:24;23.50;43.10
38746;DHT22;24488;0.000;0.000;2023-12-14T04:48:50;23.50;43.60
38746;DHT22;24488;0.000;0.000;2023-12-14T04:51:15;23.50;43.60
38746;DHT22;24488;0.000;0.000;2023-12-14T04:53:41;23.50;43.60
38746;DHT22;24488;0.000;0.000;2023-12-14T04:56:10;23.50;43.10
38746;DHT22;24488;0.000;0.000;2023-12-14T04:58:37;23.50;43.60
38746;DHT22;24488;0.000;0.000;2023-12-14T05:01:06;23.50;43.60
38746;DHT22;24488;0.000;0.000;2023-12-14T05:03:32;23.50;43.60
38746;DHT22;24488;0.000;0.000;2023-12-14T05:05:58;23.50;43.00
38746;DHT22;24488;0.000;0.000;2023-12-14T05:08:24;23.50;43.50
38746;DHT22;24488;0.000;0.000;2023-12-14T05:10:50;23.50;43.40
38746;DHT22;24488;0.000;0.000;2023-12-14T05:13:15;23.50;43.40
38746;DHT22;24488;0.000;0.000;2023-12-14T05:15:41;23.50;43.00
38746;DHT22;24488;0.000;0.000;2023-12-14T05:18:06;23.50;43.50
38746;DHT22;24488;0.000;0.000;2023-12-14T05:20:32;23.60;43.50
38746;DHT22;24488;0.000;0.000;2023-12-14T05:22:58;23.50;43.50
38746;DHT22;24488;0.000;0.000;2023-12-14T05:25:23;23.50;43.00
38746;DHT22;24488;0.000;0.000;2023-12-14T05:27:49;23.50;43.50
38746;DHT22;24488;0.000;0.000;2023-12-14T05:30:14;23.50;43.50
38746;DHT22;24488;0.000;0.000;2023-12-14T05:32:40;23.50;43.50
38746;DHT22;24488;0.000;0.000;2023-12-14T05:35:05;23.50;43.10
38746;DHT22;24488;0.000;0.000;2023-12-14T05:37:31;23.40;43.60
38746;DHT22;24488;0.000;0.000;2023-12-14T05:39:57;23.40;43.50
38746;DHT22;24488;0.000;0.000;2023-12-14T05:42:22;23.40;43.60
38746;DHT22;24488;0.000;0.000;2023-12-14T05:44:48;23.40;43.10
38746;DHT22;24488;0.000;0.000;2023-12-14T05:47:14;23.40;43.60
38746;DHT22;24488;0.000;0.000;2023-12-14T05:49:43;23.40;43.60
38746;DHT22;24488;0.000;0.000;2023-12-14T05:52:09;23.40;43.60
38746;DHT22;24488;0.000;0.000;2023-12-14T05:54:38;23.40;43.60
38746;DHT22;24488;0.000;0.000;2023-12-14T05:57:05;23.40;43.20
38746;DHT22;24488;0.000;0.000;2023-12-14T05:59:30;23.40;43.60
38746;DHT22;24488;0.000;0.000;2023-12-14T06:01:57;23.40;43.60
38746;DHT22;24488;0.000;0.000;2023-12-14T06:04:23;23.40;43.60
38746;DHT22;24488;0.000;0.000;2023-12-14T06:06:49;23.40;43.20
38746;DHT22;24488;0.000;0.000;2023-12-14T06:09:14;23.40;43.60
38746;DHT22;24488;0.000;0.000;2023-12-14T06:11:40;23.40;43.60
38746;DHT22;24488;0.000;0.000;2023-12-14T06:14:06;23.40;43.60
38746;DHT22;24488;0.000;0.000;2023-12-14T06:16:31;23.30;43.20
38746;DHT22;24488;0.000;0.000;2023-12-14T06:18:57;23.30;43.60
38746;DHT22;24488;0.000;0.000;2023-12-14T06:21:22;23.30;43.60
38746;DHT22;24488;0.000;0.000;2023-12-14T06:23:51;23.40;43.60
38746;DHT22;24488;0.000;0.000;2023-12-14T06:26:17;23.40;43.00
38746;DHT22;24488;0.000;0.000;2023-12-14T06:28:42;23.40;43.50
38746;DHT22;24488;0.000;0.000;2023-12-14T06:31:14;23.50;43.50
38746;DHT22;24488;0.000;0.000;2023-12-14T06:33:40;23.50;43.40
38746;DHT22;24488;0.000;0.000;2023-12-14T06:36:07;23.50;42.90
38746;DHT22;24488;0.000;0.000;2023-12-14T06:38:33;23.50;43.30
38746;DHT22;24488;0.000;0.000;2023-12-14T06:40:58;23.50;43.30
38746;DHT22;24488;0.000;0.000;2023-12-14T06:43:24;23.50;43.30
38746;DHT22;24488;0.000;0.000;2023-12-14T06:45:50;23.60;42.80
38746;DHT22;24488;0.000;0.000;2023-12-14T06:48:15;23.60;43.30
38746;DHT22;24488;0.000;0.000;2023-12-14T06:50:41;23.60;43.30
38746;DHT22;24488;0.000;0.000;2023-12-14T06:53:06;23.60;43.30
38746;DHT22;24488;0.000;0.000;2023-12-14T06:55:32;23.60;42.80
38746;DHT22;24488;0.000;0.000;2023-12-14T06:57:57;23.60;43.30
38746;DHT22;24488;0.000;0.000;2023-12-14T07:00:23;23.60;43.30
38746;DHT22;24488;0.000;0.000;2023-12-14T07:02:48;23.60;43.30
38746;DHT22;24488;0.000;0.000;2023-12-14T07:05:14;23.60;42.80
38746;DHT22;24488;0.000;0.000;2023-12-14T07:07:40;23.60;43.30
38746;DHT22;24488;0.000;0.000;2023-12-14T07:10:06;23.60;43.30
38746;DHT22;24488;0.000;0.000;2023-12-14T07:12:31;23.60;43.30
38746;DHT22;24488;0.000;0.000;2023-12-14T07:14:57;23.60;42.80
38746;DHT22;24488;0.000;0.000;2023-12-14T07:17:23;23.60;43.30
38746;DHT22;24488;0.000;0.000;2023-12-14T07:19:50;23.60;43.30
38746;DHT22;24488;0.000;0.000;2023-12-14T07:22:16;23.60;43.30
38746;DHT22;24488;0.000;0.000;2023-12-14T07:24:42;23.60;43.20
38746;DHT22;24488;0.000;0.000;2023-12-14T07:27:07;23.70;42.80
38746;DHT22;24488;0.000;0.000;2023-12-14T07:29:33;23.70;43.30
38746;DHT22;24488;0.000;0.000;2023-12-14T07:31:58;23.70;43.30
38746;DHT22;24488;0.000;0.000;2023-12-14T07:34:24;23.70;43.30
38746;DHT22;24488;0.000;0.000;2023-12-14T07:36:50;23.70;42.80
38746;DHT22;24488;0.000;0.000;2023-12-14T07:39:15;23.70;43.30
38746;DHT22;24488;0.000;0.000;2023-12-14T07:41:41;23.70;43.20
38746;DHT22;24488;0.000;0.000;2023-12-14T07:44:06;23.70;43.20
38746;DHT22;24488;0.000;0.000;2023-12-14T07:46:32;23.70;42.80
38746;DHT22;24488;0.000;0.000;2023-12-14T07:48:58;23.70;43.30
38746;DHT22;24488;0.000;0.000;2023-12-14T07:51:23;23.70;43.20
38746;DHT22;24488;0.000;0.000;2023-12-14T07:53:49;23.70;43.20
38746;DHT22;24488;0.000;0.000;2023-12-14T07:56:15;23.70;42.80
38746;DHT22;24488;0.000;0.000;2023-12-14T07:58:40;23.70;43.20
38746;DHT22;24488;0.000;0.000;2023-12-14T08:01:06;23.70;43.20
38746;DHT22;24488;0.000;0.000;2023-12-14T08:03:31;23.70;43.20
38746;DHT22;24488;0.000;0.000;2023-12-14T08:05:57;23.70;42.70
38746;DHT22;24488;0.000;0.000;2023-12-14T08:08:22;23.70;43.20
38746;DHT22;24488;0.000;0.000;2023-12-14T08:10:49;23.70;43.20
38746;DHT22;24488;0.000;0.000;2023-12-14T08:13:14;23.70;43.20
38746;DHT22;24488;0.000;0.000;2023-12-14T08:15:40;23.70;42.70
38746;DHT22;24488;0.000;0.000;2023-12-14T08:18:06;23.70;43.20
38746;DHT22;24488;0.000;0.000;2023-12-14T08:20:32;23.70;43.20
38746;DHT22;24488;0.000;0.000;2023-12-14T08:22:58;23.70;43.20
38746;DHT22;24488;0.000;0.000;2023-12-14T08:25:23;23.70;42.70
38746;DHT22;24488;0.000;0.000;2023-12-14T08:27:50;23.80;43.20
38746;DHT22;24488;0.000;0.000;2023-12-14T08:30:16;23.70;43.20
38746;DHT22;24488;0.000;0.000;2023-12-14T08:32:42;23.70;43.10
38746;DHT22;24488;0.000;0.000;2023-12-14T08:35:08;23.70;42.70
38746;DHT22;24488;0.000;0.000;2023-12-14T08:37:35;23.70;43.20
38746;DHT22;24488;0.000;0.000;2023-12-14T08:40:00;23.70;43.20
38746;DHT22;24488;0.000;0.000;2023-12-14T08:42:26;23.70;43.10
38746;DHT22;24488;0.000;0.000;2023-12-14T08:44:52;23.70;42.70
38746;DHT22;24488;0.000;0.000;2023-12-14T08:47:17;23.70;43.20
38746;DHT22;24488;0.000;0.000;2023-12-14T08:49:43;23.70;43.10
38746;DHT22;24488;0.000;0.000;2023-12-14T08:52:09;23.70;43.10
38746;DHT22;24488;0.000;0.000;2023-12-14T08:54:36;23.70;43.10
38746;DHT22;24488;0.000;0.000;2023-12-14T08:57:02;23.70;42.70
38746;DHT22;24488;0.000;0.000;2023-12-14T08:59:28;23.70;43.10
38746;DHT22;24488;0.000;0.000;2023-12-14T09:01:54;23.70;43.10
38746;DHT22;24488;0.000;0.000;2023-12-14T09:04:19;23.70;43.10
38746;DHT22;24488;0.000;0.000;2023-12-14T09:06:46;23.70;42.70
38746;DHT22;24488;0.000;0.000;2023-12-14T09:09:11;23.70;43.20
38746;DHT22;24488;0.000;0.000;2023-12-14T09:11:37;23.70;43.10
38746;DHT22;24488;0.000;0.000;2023-12-14T09:14:03;23.70;43.10
38746;DHT22;24488;0.000;0.000;2023-12-14T09:16:29;23.70;42.70
38746;DHT22;24488;0.000;0.000;2023-12-14T09:18:54;23.80;43.20
38746;DHT22;24488;0.000;0.000;2023-12-14T09:21:20;23.80;43.20
38746;DHT22;24488;0.000;0.000;2023-12-14T09:23:45;23.70;43.10
38746;DHT22;24488;0.000;0.000;2023-12-14T09:26:11;23.70;42.60
38746;DHT22;24488;0.000;0.000;2023-12-14T09:28:36;23.80;43.20
38746;DHT22;24488;0.000;0.000;2023-12-14T09:31:02;23.70;43.10
38746;DHT22;24488;0.000;0.000;2023-12-14T09:33:28;23.80;43.10
38746;DHT22;24488;0.000;0.000;2023-12-14T09:35:53;23.80;42.70
38746;DHT22;24488;0.000;0.000;2023-12-14T09:38:19;23.70;43.10
38746;DHT22;24488;0.000;0.000;2023-12-14T09:40:45;23.80;43.20
38746;DHT22;24488;0.000;0.000;2023-12-14T09:43:10;23.80;43.20
38746;DHT22;24488;0.000;0.000;2023-12-14T09:45:37;23.80;42.70
38746;DHT22;24488;0.000;0.000;2023-12-14T09:48:06;23.80;43.10
38746;DHT22;24488;0.000;0.000;2023-12-14T09:50:31;23.80;43.20
38746;DHT22;24488;0.000;0.000;2023-12-14T09:52:58;23.80;43.10
38746;DHT22;24488;0.000;0.000;2023-12-14T09:55:24;23.80;42.70
38746;DHT22;24488;0.000;0.000;2023-12-14T09:57:49;23.80;43.10
38746;DHT22;24488;0.000;0.000;2023-12-14T10:00:32;23.80;43.10
38746;DHT22;24488;0.000;0.000;2023-12-14T10:03:15;23.80;43.10
38746;DHT22;24488;0.000;0.000;2023-12-14T10:05:43;23.80;42.70
38746;DHT22;24488;0.000;0.000;2023-12-14T10:08:08;23.80;43.20
38746;DHT22;24488;0.000;0.000;2023-12-14T10:10:34;23.80;43.10
38746;DHT22;24488;0.000;0.000;2023-12-14T10:12:59;23.80;43.10
38746;DHT22;24488;0.000;0.000;2023-12-14T10:15:26;23.80;42.70
38746;DHT22;24488;0.000;0.000;2023-12-14T10:17:52;23.80;43.20
38746;DHT22;24488;0.000;0.000;2023-12-14T10:20:21;23.80;43.10
38746;DHT22;24488;0.000;0.000;2023-12-14T10:22:51;23.80;43.10
38746;DHT22;24488;0.000;0.000;2023-12-14T10:25:18;23.80;42.70
38746;DHT22;24488;0.000;0.000;2023-12-14T10:27:47;23.80;43.20
38746;DHT22;24488;0.000;0.000;2023-12-14T10:30:14;23.80;43.10
38746;DHT22;24488;0.000;0.000;2023-12-14T10:32:40;23.80;43.10
38746;DHT22;24488;0.000;0.000;2023-12-14T10:35:07;23.80;42.60
38746;DHT22;24488;0.000;0.000;2023-12-14T10:37:33;23.80;43.10
38746;DHT22;24488;0.000;0.000;2023-12-14T10:40:03;23.80;43.10
38746;DHT22;24488;0.000;0.000;2023-12-14T10:42:31;23.80;43.60
38746;DHT22;24488;0.000;0.000;2023-12-14T10:44:57;23.80;42.60
38746;DHT22;24488;0.000;0.000;2023-12-14T10:47:23;23.80;43.10
38746;DHT22;24488;0.000;0.000;2023-12-14T10:49:50;23.80;43.00
38746;DHT22;24488;0.000;0.000;2023-12-14T10:52:16;23.80;43.10
38746;DHT22;24488;0.000;0.000;2023-12-14T10:54:43;23.80;43.10
38746;DHT22;24488;0.000;0.000;2023-12-14T10:57:09;23.80;42.60
38746;DHT22;24488;0.000;0.000;2023-12-14T10:59:34;23.80;43.10
38746;DHT22;24488;0.000;0.000;2023-12-14T11:02:00;23.80;43.10
38746;DHT22;24488;0.000;0.000;2023-12-14T11:04:51;23.80;43.10
38746;DHT22;24488;0.000;0.000;2023-12-14T11:07:50;23.80;42.60
38746;DHT22;24488;0.000;0.000;2023-12-14T11:10:21;23.80;43.10
38746;DHT22;24488;0.000;0.000;2023-12-14T11:13:07;23.80;43.10
38746;DHT22;24488;0.000;0.000;2023-12-14T11:15:36;23.80;42.60
38746;DHT22;24488;0.000;0.000;2023-12-14T11:23:11;23.80;43.10
38746;DHT22;24488;0.000;0.000;2023-12-14T11:25:51;23.80;42.60
38746;DHT22;24488;0.000;0.000;2023-12-14T11:28:18;23.80;43.10
38746;DHT22;24488;0.000;0.000;2023-12-14T11:30:44;23.80;43.10
38746;DHT22;24488;0.000;0.000;2023-12-14T11:33:10;23.70;43.00
38746;DHT22;24488;0.000;0.000;2023-12-14T11:35:36;23.80;42.60
38746;DHT22;24488;0.000;0.000;2023-12-14T11:38:02;23.80;43.10
38746;DHT22;24488;0.000;0.000;2023-12-14T11:40:35;23.80;43.10
38746;DHT22;24488;0.000;0.000;2023-12-14T11:43:01;23.80;43.10
38746;DHT22;24488;0.000;0.000;2023-12-14T11:45:35;23.70;42.70
38746;DHT22;24488;0.000;0.000;2023-12-14T11:48:02;23.70;43.10
38746;DHT22;24488;0.000;0.000;2023-12-14T11:50:36;23.70;43.10
38746;DHT22;24488;0.000;0.000;2023-12-14T11:53:02;23.70;43.10
38746;DHT22;24488;0.000;0.000;2023-12-14T11:55:29;23.70;42.70
38746;DHT22;24488;0.000;0.000;2023-12-14T11:57:55;23.70;43.20
38746;DHT22;24488;0.000;0.000;2023-12-14T12:00:23;23.40;43.10
38746;DHT22;24488;0.000;0.000;2023-12-14T12:02:49;23.70;43.20
38746;DHT22;24488;0.000;0.000;2023-12-14T12:05:15;23.70;42.70
38746;DHT22;24488;0.000;0.000;2023-12-14T12:07:44;23.70;43.20
38746;DHT22;24488;0.000;0.000;2023-12-14T12:10:12;23.70;43.20
38746;DHT22;24488;0.000;0.000;2023-12-14T12:12:38;23.70;43.10
38746;DHT22;24488;0.000;0.000;2023-12-14T12:15:04;23.70;42.60
38746;DHT22;24488;0.000;0.000;2023-12-14T12:17:30;23.70;43.10
38746;DHT22;24488;0.000;0.000;2023-12-14T12:20:03;23.70;43.10
38746;DHT22;24488;0.000;0.000;2023-12-14T12:22:30;23.70;43.00
38746;DHT22;24488;0.000;0.000;2023-12-14T12:24:55;23.70;42.50
38746;DHT22;24488;0.000;0.000;2023-12-14T12:27:22;23.70;43.00
38746;DHT22;24488;0.000;0.000;2023-12-14T12:29:48;23.70;43.00
38746;DHT22;24488;0.000;0.000;2023-12-14T12:32:14;23.70;43.00
38746;DHT22;24488;0.000;0.000;2023-12-14T12:34:39;23.70;43.00
38746;DHT22;24488;0.000;0.000;2023-12-14T12:37:05;23.80;42.60
38746;DHT22;24488;0.000;0.000;2023-12-14T12:39:31;23.80;43.10
38746;DHT22;24488;0.000;0.000;2023-12-14T12:41:56;23.80;43.00
38746;DHT22;24488;0.000;0.000;2023-12-14T12:44:22;23.80;43.00
38746;DHT22;24488;0.000;0.000;2023-12-14T12:46:47;23.80;42.60
38746;DHT22;24488;0.000;0.000;2023-12-14T12:49:13;23.80;43.00
38746;DHT22;24488;0.000;0.000;2023-12-14T12:51:39;23.80;43.00
38746;DHT22;24488;0.000;0.000;2023-12-14T12:54:04;23.80;43.00
38746;DHT22;24488;0.000;0.000;2023-12-14T12:56:30;23.80;42.60
38746;DHT22;24488;0.000;0.000;2023-12-14T12:58:56;23.80;43.10
38746;DHT22;24488;0.000;0.000;2023-12-14T13:01:21;23.80;43.00
38746;DHT22;24488;0.000;0.000;2023-12-14T13:03:54;23.80;43.00
38746;DHT22;24488;0.000;0.000;2023-12-14T13:06:22;23.80;42.50
38746;DHT22;24488;0.000;0.000;2023-12-14T13:08:49;23.80;43.00
38746;DHT22;24488;0.000;0.000;2023-12-14T13:11:14;23.80;43.00
38746;DHT22;24488;0.000;0.000;2023-12-14T13:13:40;23.80;43.00
38746;DHT22;24488;0.000;0.000;2023-12-14T13:16:06;23.80;42.50
38746;DHT22;24488;0.000;0.000;2023-12-14T13:18:31;23.80;43.00
38746;DHT22;24488;0.000;0.000;2023-12-14T13:20:57;23.90;43.00
38746;DHT22;24488;0.000;0.000;2023-12-14T13:23:23;23.80;43.00
38746;DHT22;24488;0.000;0.000;2023-12-14T13:25:48;23.80;42.60
38746;DHT22;24488;0.000;0.000;2023-12-14T13:28:14;23.70;43.00
38746;DHT22;24488;0.000;0.000;2023-12-14T13:30:40;23.80;43.00
38746;DHT22;24488;0.000;0.000;2023-12-14T13:33:06;23.80;43.00
38746;DHT22;24488;0.000;0.000;2023-12-14T13:35:34;23.80;42.50
38746;DHT22;24488;0.000;0.000;2023-12-14T13:38:00;23.90;43.00
38746;DHT22;24488;0.000;0.000;2023-12-14T13:40:26;23.80;43.00
38746;DHT22;24488;0.000;0.000;2023-12-14T13:42:51;23.80;43.00
38746;DHT22;24488;0.000;0.000;2023-12-14T13:45:18;23.80;42.10
38746;DHT22;24488;0.000;0.000;2023-12-14T13:47:43;23.70;42.60
38746;DHT22;24488;0.000;0.000;2023-12-14T13:50:09;23.80;43.00
38746;DHT22;24488;0.000;0.000;2023-12-14T13:52:35;23.70;43.00
38746;DHT22;24488;0.000;0.000;2023-12-14T13:55:00;23.70;42.50
38746;DHT22;24488;0.000;0.000;2023-12-14T13:57:26;23.70;42.90
38746;DHT22;24488;0.000;0.000;2023-12-14T13:59:52;23.70;42.90
38746;DHT22;24488;0.000;0.000;2023-12-14T14:02:18;23.80;42.90
38746;DHT22;24488;0.000;0.000;2023-12-14T14:04:44;23.80;42.90
38746;DHT22;24488;0.000;0.000;2023-12-14T14:07:10;23.80;42.40
38746;DHT22;24488;0.000;0.000;2023-12-14T14:09:35;23.80;42.90
38746;DHT22;24488;0.000;0.000;2023-12-14T14:12:01;23.80;42.90
38746;DHT22;24488;0.000;0.000;2023-12-14T14:14:26;23.80;42.80
38746;DHT22;24488;0.000;0.000;2023-12-14T14:16:52;23.80;42.40
38746;DHT22;24488;0.000;0.000;2023-12-14T14:19:17;23.80;42.90
38746;DHT22;24488;0.000;0.000;2023-12-14T14:21:43;23.80;42.80
38746;DHT22;24488;0.000;0.000;2023-12-14T14:24:09;23.80;42.80
38746;DHT22;24488;0.000;0.000;2023-12-14T14:26:35;23.80;42.40
38746;DHT22;24488;0.000;0.000;2023-12-14T14:29:00;23.80;42.90
38746;DHT22;24488;0.000;0.000;2023-12-14T14:31:27;23.80;42.80
38746;DHT22;24488;0.000;0.000;2023-12-14T14:33:57;23.80;42.80
38746;DHT22;24488;0.000;0.000;2023-12-14T14:36:23;23.80;42.40
38746;DHT22;24488;0.000;0.000;2023-12-14T14:38:49;23.70;42.80
38746;DHT22;24488;0.000;0.000;2023-12-14T14:41:15;23.70;42.80
38746;DHT22;24488;0.000;0.000;2023-12-14T14:43:41;23.80;42.80
38746;DHT22;24488;0.000;0.000;2023-12-14T14:46:08;23.80;42.30
38746;DHT22;24488;0.000;0.000;2023-12-14T14:48:33;23.80;42.80
38746;DHT22;24488;0.000;0.000;2023-12-14T14:50:59;23.80;42.80
38746;DHT22;24488;0.000;0.000;2023-12-14T14:53:25;23.80;42.80
38746;DHT22;24488;0.000;0.000;2023-12-14T14:55:50;23.80;42.40
38746;DHT22;24488;0.000;0.000;2023-12-14T14:58:20;23.80;42.80
38746;DHT22;24488;0.000;0.000;2023-12-14T15:00:46;23.80;42.80
38746;DHT22;24488;0.000;0.000;2023-12-14T15:03:13;23.80;42.80
38746;DHT22;24488;0.000;0.000;2023-12-14T15:05:39;23.80;42.30
38746;DHT22;24488;0.000;0.000;2023-12-14T15:08:05;23.70;42.70
38746;DHT22;24488;0.000;0.000;2023-12-14T15:10:32;23.80;42.70
38746;DHT22;24488;0.000;0.000;2023-12-14T15:12:58;23.80;42.70
38746;DHT22;24488;0.000;0.000;2023-12-14T15:15:23;23.80;42.30
38746;DHT22;24488;0.000;0.000;2023-12-14T15:17:49;23.80;42.70
38746;DHT22;24488;0.000;0.000;2023-12-14T15:20:14;23.80;42.70
38746;DHT22;24488;0.000;0.000;2023-12-14T15:22:40;23.80;42.70
38746;DHT22;24488;0.000;0.000;2023-12-14T15:25:06;23.80;42.30
38746;DHT22;24488;0.000;0.000;2023-12-14T15:27:31;23.80;42.70
38746;DHT22;24488;0.000;0.000;2023-12-14T15:29:58;23.80;42.70
38746;DHT22;24488;0.000;0.000;2023-12-14T15:32:24;23.80;42.80
38746;DHT22;24488;0.000;0.000;2023-12-14T15:34:50;23.80;42.30
38746;DHT22;24488;0.000;0.000;2023-12-14T15:37:15;23.80;42.70
38746;DHT22;24488;0.000;0.000;2023-12-14T15:39:41;23.80;42.70
38746;DHT22;24488;0.000;0.000;2023-12-14T15:42:13;23.80;42.70
38746;DHT22;24488;0.000;0.000;2023-12-14T15:44:38;23.70;42.70
38746;DHT22;24488;0.000;0.000;2023-12-14T15:47:04;23.80;42.20